sensor_id;sensor_type;location;lat;lon;timestamp;temperature;humidity
11087;DHT22;5597;47.588;9.642;2023-03-03T00:02:12;2.20;99.90
11087;DHT22;5597;47.588;9.642;2023-03-03T00:04:38;2.20;99.90
11087;DHT22;5597;47.588;9.642;2023-03-03T00:07:04;2.20;99.90
11087;DHT22;5597;47.588;9.642;2023-03-03T00:09:29;2.20;99.90
11087;DHT22;5597;47.588;9.642;2023-03-03T00:11:57;2.20;99.90
11087;DHT22;5597;47.588;9.642;2023-03-03T00:14:30;2.20;99.90
11087;DHT22;5597;47.588;9.642;2023-03-03T00:16:56;2.20;99.90
11087;DHT22;5597;47.588;9.642;2023-03-03T00:19:22;2.20;99.90
11087;DHT22;5597;47.588;9.642;2023-03-03T00:21:49;2.20;99.90
11087;DHT22;5597;47.588;9.642;2023-03-03T00:24:35;2.20;99.90
11087;DHT22;5597;47.588;9.642;2023-03-03T00:30:05;2.30;99.90
11087;DHT22;5597;47.588;9.642;2023-03-03T00:32:44;2.30;99.90
11087;DHT22;5597;47.588;9.642;2023-03-03T00:35:35;2.30;99.90
11087;DHT22;5597;47.588;9.642;2023-03-03T00:38:29;2.30;99.90
11087;DHT22;5597;47.588;9.642;2023-03-03T00:40:59;2.30;99.90
11087;DHT22;5597;47.588;9.642;2023-03-03T00:43:33;2.30;99.90
11087;DHT22;5597;47.588;9.642;2023-03-03T00:45:59;2.30;99.90
11087;DHT22;5597;47.588;9.642;2023-03-03T00:51:25;2.30;99.90
11087;DHT22;5597;47.588;9.642;2023-03-03T00:53:52;2.30;99.90
11087;DHT22;5597;47.588;9.642;2023-03-03T00:56:17;2.30;99.90
11087;DHT22;5597;47.588;9.642;2023-03-03T00:58:43;2.30;99.90
11087;DHT22;5597;47.588;9.642;2023-03-03T01:01:10;2.30;99.90
11087;DHT22;5597;47.588;9.642;2023-03-03T01:03:36;2.30;99.90
11087;DHT22;5597;47.588;9.642;2023-03-03T01:06:02;2.30;99.90
11087;DHT22;5597;47.588;9.642;2023-03-03T01:08:28;2.30;99.90
11087;DHT22;5597;47.588;9.642;2023-03-03T01:10:55;2.30;99.90
11087;DHT22;5597;47.588;9.642;2023-03-03T01:13:24;2.30;99.90
11087;DHT22;5597;47.588;9.642;2023-03-03T01:15:50;2.30;99.90
11087;DHT22;5597;47.588;9.642;2023-03-03T01:18:16;2.30;99.90
11087;DHT22;5597;47.588;9.642;2023-03-03T01:20:42;2.30;99.90
11087;DHT22;5597;47.588;9.642;2023-03-03T01:23:08;2.30;99.90
11087;DHT22;5597;47.588;9.642;2023-03-03T01:25:34;2.30;99.90
11087;DHT22;5597;47.588;9.642;2023-03-03T01:27:59;2.40;99.90
11087;DHT22;5597;47.588;9.642;2023-03-03T01:30:25;2.30;99.90
11087;DHT22;5597;47.588;9.642;2023-03-03T01:32:51;2.30;99.90
11087;DHT22;5597;47.588;9.642;2023-03-03T01:35:16;2.30;99.90
11087;DHT22;5597;47.588;9.642;2023-03-03T01:37:42;2.30;99.90
11087;DHT22;5597;47.588;9.642;2023-03-03T01:40:17;2.40;99.90
11087;DHT22;5597;47.588;9.642;2023-03-03T01:42:43;2.30;99.90
11087;DHT22;5597;47.588;9.642;2023-03-03T01:45:18;2.40;99.90
11087;DHT22;5597;47.588;9.642;2023-03-03T01:47:53;2.40;99.90
11087;DHT22;5597;47.588;9.642;2023-03-03T01:53:36;2.40;99.90
11087;DHT22;5597;47.588;9.642;2023-03-03T01:56:05;2.40;99.90
11087;DHT22;5597;47.588;9.642;2023-03-03T01:58:35;2.40;99.90
11087;DHT22;5597;47.588;9.642;2023-03-03T02:01:06;2.40;99.90
11087;DHT22;5597;47.588;9.642;2023-03-03T02:03:33;2.40;99.90
11087;DHT22;5597;47.588;9.642;2023-03-03T02:06:03;2.40;99.90
11087;DHT22;5597;47.588;9.642;2023-03-03T02:08:35;2.40;99.90
11087;DHT22;5597;47.588;9.642;2023-03-03T02:11:03;2.40;99.90
11087;DHT22;5597;47.588;9.642;2023-03-03T02:13:30;2.40;99.90
11087;DHT22;5597;47.588;9.642;2023-03-03T02:15:55;2.40;99.90
11087;DHT22;5597;47.588;9.642;2023-03-03T02:18:21;2.40;99.90
11087;DHT22;5597;47.588;9.642;2023-03-03T02:20:57;2.40;99.90
11087;DHT22;5597;47.588;9.642;2023-03-03T02:28:28;2.40;99.90
11087;DHT22;5597;47.588;9.642;2023-03-03T02:30:56;2.40;99.90
11087;DHT22;5597;47.588;9.642;2023-03-03T02:33:21;2.40;99.90
11087;DHT22;5597;47.588;9.642;2023-03-03T02:35:47;2.40;99.90
11087;DHT22;5597;47.588;9.642;2023-03-03T02:38:50;2.40;99.90
11087;DHT22;5597;47.588;9.642;2023-03-03T02:44:14;2.40;99.90
11087;DHT22;5597;47.588;9.642;2023-03-03T02:46:43;2.50;99.90
11087;DHT22;5597;47.588;9.642;2023-03-03T02:49:11;2.40;99.90
11087;DHT22;5597;47.588;9.642;2023-03-03T02:51:37;2.40;99.90
11087;DHT22;5597;47.588;9.642;2023-03-03T02:54:04;2.40;99.90
11087;DHT22;5597;47.588;9.642;2023-03-03T02:56:30;2.40;99.90
11087;DHT22;5597;47.588;9.642;2023-03-03T02:58:56;2.40;99.90
11087;DHT22;5597;47.588;9.642;2023-03-03T03:01:21;2.50;99.90
11087;DHT22;5597;47.588;9.642;2023-03-03T03:03:47;2.40;99.90
11087;DHT22;5597;47.588;9.642;2023-03-03T03:06:13;2.50;99.90
11087;DHT22;5597;47.588;9.642;2023-03-03T03:08:38;2.50;99.90
11087;DHT22;5597;47.588;9.642;2023-03-03T03:11:04;2.40;99.90
11087;DHT22;5597;47.588;9.642;2023-03-03T03:13:33;2.40;99.90
11087;DHT22;5597;47.588;9.642;2023-03-03T03:15:59;2.50;99.90
11087;DHT22;5597;47.588;9.642;2023-03-03T03:18:26;2.40;99.90
11087;DHT22;5597;47.588;9.642;2023-03-03T03:20:51;2.40;99.90
11087;DHT22;5597;47.588;9.642;2023-03-03T03:23:17;2.40;99.90
11087;DHT22;5597;47.588;9.642;2023-03-03T03:25:43;2.40;99.90
11087;DHT22;5597;47.588;9.642;2023-03-03T03:28:12;2.40;99.90
11087;DHT22;5597;47.588;9.642;2023-03-03T03:30:38;2.40;99.90
11087;DHT22;5597;47.588;9.642;2023-03-03T03:33:04;2.40;99.90
11087;DHT22;5597;47.588;9.642;2023-03-03T03:35:32;2.40;99.90
11087;DHT22;5597;47.588;9.642;2023-03-03T03:37:57;2.40;99.90
11087;DHT22;5597;47.588;9.642;2023-03-03T03:40:23;2.40;99.90
11087;DHT22;5597;47.588;9.642;2023-03-03T03:42:51;2.40;99.90
11087;DHT22;5597;47.588;9.642;2023-03-03T03:45:17;2.50;99.90
11087;DHT22;5597;47.588;9.642;2023-03-03T03:47:43;2.50;99.90
11087;DHT22;5597;47.588;9.642;2023-03-03T03:50:09;2.50;99.90
11087;DHT22;5597;47.588;9.642;2023-03-03T03:52:35;2.50;99.90
11087;DHT22;5597;47.588;9.642;2023-03-03T03:55:00;2.40;99.90
11087;DHT22;5597;47.588;9.642;2023-03-03T03:57:26;2.40;99.90
11087;DHT22;5597;47.588;9.642;2023-03-03T03:59:52;2.40;99.90
11087;DHT22;5597;47.588;9.642;2023-03-03T04:02:17;2.40;99.90
11087;DHT22;5597;47.588;9.642;2023-03-03T04:04:43;2.40;99.90
11087;DHT22;5597;47.588;9.642;2023-03-03T04:07:09;2.40;99.90
11087;DHT22;5597;47.588;9.642;2023-03-03T04:09:34;2.40;99.90
11087;DHT22;5597;47.588;9.642;2023-03-03T04:12:00;2.40;99.90
11087;DHT22;5597;47.588;9.642;2023-03-03T04:14:26;2.40;99.90
11087;DHT22;5597;47.588;9.642;2023-03-03T04:16:51;2.40;99.90
11087;DHT22;5597;47.588;9.642;2023-03-03T04:19:17;2.40;99.90
11087;DHT22;5597;47.588;9.642;2023-03-03T04:21:42;2.40;99.90
11087;DHT22;5597;47.588;9.642;2023-03-03T04:24:08;2.40;99.90
11087;DHT22;5597;47.588;9.642;2023-03-03T04:26:34;2.40;99.90
11087;DHT22;5597;47.588;9.642;2023-03-03T04:28:59;2.40;99.90
11087;DHT22;5597;47.588;9.642;2023-03-03T04:31:26;2.40;99.90
11087;DHT22;5597;47.588;9.642;2023-03-03T04:33:51;2.40;99.90
11087;DHT22;5597;47.588;9.642;2023-03-03T04:36:18;2.40;99.90
11087;DHT22;5597;47.588;9.642;2023-03-03T04:38:44;2.40;99.90
11087;DHT22;5597;47.588;9.642;2023-03-03T04:41:10;2.40;99.90
11087;DHT22;5597;47.588;9.642;2023-03-03T04:43:35;2.40;99.90
11087;DHT22;5597;47.588;9.642;2023-03-03T04:46:01;2.50;99.90
11087;DHT22;5597;47.588;9.642;2023-03-03T04:48:27;2.50;99.90
11087;DHT22;5597;47.588;9.642;2023-03-03T04:50:53;2.50;99.90
11087;DHT22;5597;47.588;9.642;2023-03-03T04:53:19;2.40;99.90
11087;DHT22;5597;47.588;9.642;2023-03-03T04:55:45;2.50;99.90
11087;DHT22;5597;47.588;9.642;2023-03-03T04:58:10;2.50;99.90
11087;DHT22;5597;47.588;9.642;2023-03-03T05:00:36;2.40;99.90
11087;DHT22;5597;47.588;9.642;2023-03-03T05:03:02;2.40;99.90
11087;DHT22;5597;47.588;9.642;2023-03-03T05:05:28;2.40;99.90
11087;DHT22;5597;47.588;9.642;2023-03-03T05:07:53;2.40;99.90
11087;DHT22;5597;47.588;9.642;2023-03-03T05:10:19;2.40;99.90
11087;DHT22;5597;47.588;9.642;2023-03-03T05:12:45;2.40;99.90
11087;DHT22;5597;47.588;9.642;2023-03-03T05:15:11;2.40;99.90
11087;DHT22;5597;47.588;9.642;2023-03-03T05:17:36;2.40;99.90
11087;DHT22;5597;47.588;9.642;2023-03-03T05:20:04;2.40;99.90
11087;DHT22;5597;47.588;9.642;2023-03-03T05:22:30;2.40;99.90
11087;DHT22;5597;47.588;9.642;2023-03-03T05:24:55;2.40;99.90
11087;DHT22;5597;47.588;9.642;2023-03-03T05:27:22;2.40;99.90
11087;DHT22;5597;47.588;9.642;2023-03-03T05:29:48;2.40;99.90
11087;DHT22;5597;47.588;9.642;2023-03-03T05:32:13;2.40;99.90
11087;DHT22;5597;47.588;9.642;2023-03-03T05:34:39;2.40;99.90
11087;DHT22;5597;47.588;9.642;2023-03-03T05:37:05;2.40;99.90
11087;DHT22;5597;47.588;9.642;2023-03-03T05:39:31;2.40;99.90
11087;DHT22;5597;47.588;9.642;2023-03-03T05:41:57;2.40;99.90
11087;DHT22;5597;47.588;9.642;2023-03-03T05:44:25;2.40;99.90
11087;DHT22;5597;47.588;9.642;2023-03-03T05:46:50;2.40;99.90
11087;DHT22;5597;47.588;9.642;2023-03-03T05:49:16;2.50;99.90
11087;DHT22;5597;47.588;9.642;2023-03-03T05:51:41;2.40;99.90
11087;DHT22;5597;47.588;9.642;2023-03-03T05:54:07;2.40;99.90
11087;DHT22;5597;47.588;9.642;2023-03-03T05:56:32;2.50;99.90
11087;DHT22;5597;47.588;9.642;2023-03-03T05:58:58;2.50;99.90
11087;DHT22;5597;47.588;9.642;2023-03-03T06:01:24;2.50;99.90
11087;DHT22;5597;47.588;9.642;2023-03-03T06:03:52;2.50;99.90
11087;DHT22;5597;47.588;9.642;2023-03-03T06:06:18;2.50;99.90
11087;DHT22;5597;47.588;9.642;2023-03-03T06:08:44;2.50;99.90
11087;DHT22;5597;47.588;9.642;2023-03-03T06:11:10;2.50;99.90
11087;DHT22;5597;47.588;9.642;2023-03-03T06:13:36;2.50;99.90
11087;DHT22;5597;47.588;9.642;2023-03-03T06:16:02;2.50;99.90
11087;DHT22;5597;47.588;9.642;2023-03-03T06:18:27;2.50;99.90
11087;DHT22;5597;47.588;9.642;2023-03-03T06:20:54;2.50;99.90
11087;DHT22;5597;47.588;9.642;2023-03-03T06:23:20;2.50;99.90
11087;DHT22;5597;47.588;9.642;2023-03-03T06:25:45;2.50;99.90
11087;DHT22;5597;47.588;9.642;2023-03-03T06:28:12;2.50;99.90
11087;DHT22;5597;47.588;9.642;2023-03-03T06:30:38;2.50;99.90
11087;DHT22;5597;47.588;9.642;2023-03-03T06:33:03;2.60;99.90
11087;DHT22;5597;47.588;9.642;2023-03-03T06:35:29;2.60;99.90
11087;DHT22;5597;47.588;9.642;2023-03-03T06:37:54;2.60;99.90
11087;DHT22;5597;47.588;9.642;2023-03-03T06:40:20;2.60;99.90
11087;DHT22;5597;47.588;9.642;2023-03-03T06:42:46;2.70;99.90
11087;DHT22;5597;47.588;9.642;2023-03-03T06:45:12;2.70;99.90
11087;DHT22;5597;47.588;9.642;2023-03-03T06:47:37;2.70;99.90
11087;DHT22;5597;47.588;9.642;2023-03-03T06:50:03;2.80;99.90
11087;DHT22;5597;47.588;9.642;2023-03-03T06:52:29;2.80;99.90
11087;DHT22;5597;47.588;9.642;2023-03-03T06:54:58;2.80;99.90
11087;DHT22;5597;47.588;9.642;2023-03-03T06:57:30;2.80;99.90
11087;DHT22;5597;47.588;9.642;2023-03-03T07:00:17;2.90;99.90
11087;DHT22;5597;47.588;9.642;2023-03-03T07:02:45;2.90;99.90
11087;DHT22;5597;47.588;9.642;2023-03-03T07:05:15;2.90;99.90
11087;DHT22;5597;47.588;9.642;2023-03-03T07:07:41;2.90;99.90
11087;DHT22;5597;47.588;9.642;2023-03-03T07:10:26;3.00;99.90
11087;DHT22;5597;47.588;9.642;2023-03-03T07:12:52;3.00;99.90
11087;DHT22;5597;47.588;9.642;2023-03-03T07:15:32;3.00;99.90
11087;DHT22;5597;47.588;9.642;2023-03-03T07:17:58;3.00;99.90
11087;DHT22;5597;47.588;9.642;2023-03-03T07:22:54;3.00;99.90
11087;DHT22;5597;47.588;9.642;2023-03-03T07:25:29;3.00;99.90
11087;DHT22;5597;47.588;9.642;2023-03-03T07:27:59;3.00;99.90
11087;DHT22;5597;47.588;9.642;2023-03-03T07:30:27;3.00;99.90
11087;DHT22;5597;47.588;9.642;2023-03-03T07:32:55;3.00;99.90
11087;DHT22;5597;47.588;9.642;2023-03-03T07:35:41;3.00;99.90
11087;DHT22;5597;47.588;9.642;2023-03-03T07:38:29;3.00;99.90
11087;DHT22;5597;47.588;9.642;2023-03-03T07:41:00;3.00;99.90
11087;DHT22;5597;47.588;9.642;2023-03-03T07:46:42;3.10;99.90
11087;DHT22;5597;47.588;9.642;2023-03-03T07:49:32;3.10;99.90
11087;DHT22;5597;47.588;9.642;2023-03-03T07:52:00;3.10;99.90
11087;DHT22;5597;47.588;9.642;2023-03-03T07:57:27;3.20;99.90
11087;DHT22;5597;47.588;9.642;2023-03-03T07:59:59;3.20;99.90
11087;DHT22;5597;47.588;9.642;2023-03-03T08:02:36;3.20;99.90
11087;DHT22;5597;47.588;9.642;2023-03-03T08:07:45;3.20;99.90
11087;DHT22;5597;47.588;9.642;2023-03-03T08:13:47;3.30;99.90
11087;DHT22;5597;47.588;9.642;2023-03-03T08:18:47;3.40;99.90
11087;DHT22;5597;47.588;9.642;2023-03-03T08:21:14;3.40;99.90
11087;DHT22;5597;47.588;9.642;2023-03-03T08:23:41;3.40;99.90
11087;DHT22;5597;47.588;9.642;2023-03-03T08:26:07;3.40;99.90
11087;DHT22;5597;47.588;9.642;2023-03-03T08:28:32;3.50;99.90
11087;DHT22;5597;47.588;9.642;2023-03-03T08:30:58;3.50;99.90
11087;DHT22;5597;47.588;9.642;2023-03-03T08:33:24;3.50;99.90
11087;DHT22;5597;47.588;9.642;2023-03-03T08:35:49;3.60;99.90
11087;DHT22;5597;47.588;9.642;2023-03-03T08:38:18;3.60;99.90
11087;DHT22;5597;47.588;9.642;2023-03-03T08:40:45;3.60;99.90
11087;DHT22;5597;47.588;9.642;2023-03-03T08:43:11;3.60;99.90
11087;DHT22;5597;47.588;9.642;2023-03-03T08:45:45;3.70;99.90
11087;DHT22;5597;47.588;9.642;2023-03-03T08:48:11;3.70;99.90
11087;DHT22;5597;47.588;9.642;2023-03-03T08:50:38;3.70;99.90
11087;DHT22;5597;47.588;9.642;2023-03-03T08:53:04;3.70;99.90
11087;DHT22;5597;47.588;9.642;2023-03-03T08:55:30;3.70;99.90
11087;DHT22;5597;47.588;9.642;2023-03-03T08:57:55;3.70;99.90
11087;DHT22;5597;47.588;9.642;2023-03-03T09:00:21;3.70;99.90
11087;DHT22;5597;47.588;9.642;2023-03-03T09:02:47;3.80;99.90
11087;DHT22;5597;47.588;9.642;2023-03-03T09:05:13;3.80;99.90
11087;DHT22;5597;47.588;9.642;2023-03-03T09:07:39;3.80;99.90
11087;DHT22;5597;47.588;9.642;2023-03-03T09:10:06;3.80;99.90
11087;DHT22;5597;47.588;9.642;2023-03-03T09:12:43;3.90;99.90
11087;DHT22;5597;47.588;9.642;2023-03-03T09:15:30;3.90;99.90
11087;DHT22;5597;47.588;9.642;2023-03-03T09:18:19;4.00;99.90
11087;DHT22;5597;47.588;9.642;2023-03-03T09:21:01;4.00;99.90
11087;DHT22;5597;47.588;9.642;2023-03-03T09:28:54;4.10;99.90
11087;DHT22;5597;47.588;9.642;2023-03-03T09:31:24;4.20;99.90
11087;DHT22;5597;47.588;9.642;2023-03-03T09:33:50;4.30;99.90
11087;DHT22;5597;47.588;9.642;2023-03-03T09:36:37;4.30;99.90
11087;DHT22;5597;47.588;9.642;2023-03-03T09:39:17;4.30;99.90
11087;DHT22;5597;47.588;9.642;2023-03-03T10:03:10;5.00;99.90
11087;DHT22;5597;47.588;9.642;2023-03-03T10:06:03;5.10;99.90
11087;DHT22;5597;47.588;9.642;2023-03-03T10:11:48;5.30;99.90
11087;DHT22;5597;47.588;9.642;2023-03-03T10:22:19;5.90;99.90
11087;DHT22;5597;47.588;9.642;2023-03-03T10:24:53;6.00;99.90
11087;DHT22;5597;47.588;9.642;2023-03-03T10:27:34;6.10;99.90
11087;DHT22;5597;47.588;9.642;2023-03-03T10:30:32;6.20;99.90
11087;DHT22;5597;47.588;9.642;2023-03-03T10:33:18;6.20;99.90
11087;DHT22;5597;47.588;9.642;2023-03-03T10:44:19;6.20;99.90
11087;DHT22;5597;47.588;9.642;2023-03-03T10:47:11;6.20;99.90
11087;DHT22;5597;47.588;9.642;2023-03-03T10:49:41;6.40;99.90
11087;DHT22;5597;47.588;9.642;2023-03-03T10:52:30;6.40;99.90
11087;DHT22;5597;47.588;9.642;2023-03-03T11:00:40;6.70;99.90
11087;DHT22;5597;47.588;9.642;2023-03-03T11:08:40;6.90;99.90
11087;DHT22;5597;47.588;9.642;2023-03-03T11:13:44;7.00;99.90
11087;DHT22;5597;47.588;9.642;2023-03-03T11:16:42;7.00;99.90
11087;DHT22;5597;47.588;9.642;2023-03-03T11:19:58;6.90;99.90
11087;DHT22;5597;47.588;9.642;2023-03-03T11:22:06;6.80;99.90
11087;DHT22;5597;47.588;9.642;2023-03-03T11:36:17;7.00;99.90
11087;DHT22;5597;47.588;9.642;2023-03-03T11:38:50;7.10;99.90
11087;DHT22;5597;47.588;9.642;2023-03-03T11:44:21;7.50;99.90
11087;DHT22;5597;47.588;9.642;2023-03-03T11:46:52;7.70;99.90
11087;DHT22;5597;47.588;9.642;2023-03-03T11:57:26;7.90;99.90
11087;DHT22;5597;47.588;9.642;2023-03-03T12:00:14;7.90;99.90
11087;DHT22;5597;47.588;9.642;2023-03-03T12:05:48;7.70;99.90
11087;DHT22;5597;47.588;9.642;2023-03-03T12:08:54;7.70;99.90
11087;DHT22;5597;47.588;9.642;2023-03-03T12:11:43;7.70;99.90
11087;DHT22;5597;47.588;9.642;2023-03-03T12:17:00;7.80;99.90
11087;DHT22;5597;47.588;9.642;2023-03-03T12:22:14;7.70;99.90
11087;DHT22;5597;47.588;9.642;2023-03-03T12:28:04;7.60;99.90
11087;DHT22;5597;47.588;9.642;2023-03-03T12:31:09;7.50;99.90
11087;DHT22;5597;47.588;9.642;2023-03-03T12:33:39;7.50;99.90
11087;DHT22;5597;47.588;9.642;2023-03-03T12:44:56;7.40;99.90
11087;DHT22;5597;47.588;9.642;2023-03-03T12:47:30;7.40;99.90
11087;DHT22;5597;47.588;9.642;2023-03-03T12:56:07;7.40;99.90
11087;DHT22;5597;47.588;9.642;2023-03-03T12:59:10;7.40;99.90
11087;DHT22;5597;47.588;9.642;2023-03-03T13:07:41;7.60;99.90
11087;DHT22;5597;47.588;9.642;2023-03-03T13:10:26;7.70;99.90
11087;DHT22;5597;47.588;9.642;2023-03-03T13:16:10;7.80;99.90
11087;DHT22;5597;47.588;9.642;2023-03-03T13:21:25;7.80;99.90
11087;DHT22;5597;47.588;9.642;2023-03-03T13:24:05;7.90;99.90
11087;DHT22;5597;47.588;9.642;2023-03-03T13:29:34;8.30;99.90
11087;DHT22;5597;47.588;9.642;2023-03-03T13:32:13;8.40;99.90
11087;DHT22;5597;47.588;9.642;2023-03-03T13:37:15;8.40;99.90
11087;DHT22;5597;47.588;9.642;2023-03-03T13:40:18;8.40;99.90
11087;DHT22;5597;47.588;9.642;2023-03-03T13:42:55;8.40;99.90
11087;DHT22;5597;47.588;9.642;2023-03-03T13:50:55;8.50;99.90
11087;DHT22;5597;47.588;9.642;2023-03-03T13:53:45;8.60;99.90
11087;DHT22;5597;47.588;9.642;2023-03-03T13:56:35;8.70;99.90
11087;DHT22;5597;47.588;9.642;2023-03-03T14:05:09;9.10;99.90
11087;DHT22;5597;47.588;9.642;2023-03-03T14:13:50;9.70;99.90
11087;DHT22;5597;47.588;9.642;2023-03-03T14:16:45;9.70;99.90
11087;DHT22;5597;47.588;9.642;2023-03-03T14:27:27;9.60;99.90
11087;DHT22;5597;47.588;9.642;2023-03-03T14:29:57;9.60;99.90
11087;DHT22;5597;47.588;9.642;2023-03-03T14:32:25;9.40;99.90
11087;DHT22;5597;47.588;9.642;2023-03-03T14:35:00;9.40;99.90
11087;DHT22;5597;47.588;9.642;2023-03-03T14:37:45;9.40;99.90
11087;DHT22;5597;47.588;9.642;2023-03-03T14:40:30;9.50;99.90
11087;DHT22;5597;47.588;9.642;2023-03-03T14:42:58;9.60;99.90
11087;DHT22;5597;47.588;9.642;2023-03-03T14:45:37;9.50;99.90
11087;DHT22;5597;47.588;9.642;2023-03-03T14:48:23;9.50;99.90
11087;DHT22;5597;47.588;9.642;2023-03-03T14:50:53;9.40;99.90
11087;DHT22;5597;47.588;9.642;2023-03-03T14:55:55;9.30;99.90
11087;DHT22;5597;47.588;9.642;2023-03-03T14:58:40;9.40;99.90
11087;DHT22;5597;47.588;9.642;2023-03-03T15:01:20;9.40;99.90
11087;DHT22;5597;47.588;9.642;2023-03-03T15:04:33;9.40;99.90
11087;DHT22;5597;47.588;9.642;2023-03-03T15:06:44;9.40;99.90
11087;DHT22;5597;47.588;9.642;2023-03-03T15:12:26;9.30;99.90
11087;DHT22;5597;47.588;9.642;2023-03-03T15:20:28;9.10;99.90
11087;DHT22;5597;47.588;9.642;2023-03-03T15:25:46;8.90;99.90
11087;DHT22;5597;47.588;9.642;2023-03-03T15:28:41;8.80;99.90
11087;DHT22;5597;47.588;9.642;2023-03-03T15:37:00;8.80;99.90
11087;DHT22;5597;47.588;9.642;2023-03-03T15:53:26;8.20;99.90
11087;DHT22;5597;47.588;9.642;2023-03-03T16:04:09;7.80;99.90
11087;DHT22;5597;47.588;9.642;2023-03-03T16:12:20;7.60;99.90
11087;DHT22;5597;47.588;9.642;2023-03-03T16:20:39;7.40;99.90
11087;DHT22;5597;47.588;9.642;2023-03-03T16:34:25;6.90;99.90
11087;DHT22;5597;47.588;9.642;2023-03-03T16:39:28;6.80;99.90
11087;DHT22;5597;47.588;9.642;2023-03-03T16:42:06;6.70;99.90
11087;DHT22;5597;47.588;9.642;2023-03-03T16:52:54;6.20;99.90
11087;DHT22;5597;47.588;9.642;2023-03-03T16:55:35;6.10;99.90
11087;DHT22;5597;47.588;9.642;2023-03-03T17:20:59;5.50;99.90
11087;DHT22;5597;47.588;9.642;2023-03-03T17:23:45;5.40;99.90
11087;DHT22;5597;47.588;9.642;2023-03-03T17:26:37;5.30;99.90
11087;DHT22;5597;47.588;9.642;2023-03-03T17:40:30;5.00;99.90
11087;DHT22;5597;47.588;9.642;2023-03-03T17:45:38;4.90;99.90
11087;DHT22;5597;47.588;9.642;2023-03-03T17:56:27;4.80;99.90
11087;DHT22;5597;47.588;9.642;2023-03-03T17:59:08;4.70;99.90
11087;DHT22;5597;47.588;9.642;2023-03-03T18:13:43;4.50;99.90
11087;DHT22;5597;47.588;9.642;2023-03-03T18:22:12;4.40;99.90
11087;DHT22;5597;47.588;9.642;2023-03-03T18:32:58;4.30;99.90
11087;DHT22;5597;47.588;9.642;2023-03-03T18:35:32;4.30;99.90
11087;DHT22;5597;47.588;9.642;2023-03-03T18:41:11;4.30;99.90
11087;DHT22;5597;47.588;9.642;2023-03-03T18:46:11;4.20;99.90
11087;DHT22;5597;47.588;9.642;2023-03-03T18:49:09;4.20;99.90
11087;DHT22;5597;47.588;9.642;2023-03-03T19:12:59;3.90;99.90
11087;DHT22;5597;47.588;9.642;2023-03-03T19:18:13;3.80;99.90
11087;DHT22;5597;47.588;9.642;2023-03-03T19:20:39;3.80;99.90
11087;DHT22;5597;47.588;9.642;2023-03-03T19:23:12;3.80;99.90
11087;DHT22;5597;47.588;9.642;2023-03-03T19:25:39;3.80;99.90
11087;DHT22;5597;47.588;9.642;2023-03-03T19:30:44;3.70;99.90
11087;DHT22;5597;47.588;9.642;2023-03-03T19:33:37;3.70;99.90
11087;DHT22;5597;47.588;9.642;2023-03-03T19:41:44;3.60;99.90
11087;DHT22;5597;47.588;9.642;2023-03-03T19:44:45;3.50;99.90
11087;DHT22;5597;47.588;9.642;2023-03-03T19:47:37;3.50;99.90
11087;DHT22;5597;47.588;9.642;2023-03-03T19:56:14;3.40;99.90
11087;DHT22;5597;47.588;9.642;2023-03-03T19:58:49;3.40;99.90
11087;DHT22;5597;47.588;9.642;2023-03-03T20:14:46;3.20;99.90
11087;DHT22;5597;47.588;9.642;2023-03-03T20:25:43;3.10;99.90
11087;DHT22;5597;47.588;9.642;2023-03-03T20:36:36;2.80;99.90
11087;DHT22;5597;47.588;9.642;2023-03-03T20:49:39;2.60;99.90
11087;DHT22;5597;47.588;9.642;2023-03-03T20:52:22;2.50;99.90
11087;DHT22;5597;47.588;9.642;2023-03-03T20:57:51;2.40;99.90
11087;DHT22;5597;47.588;9.642;2023-03-03T21:00:36;2.30;99.90
11087;DHT22;5597;47.588;9.642;2023-03-03T21:03:35;2.30;99.90
11087;DHT22;5597;47.588;9.642;2023-03-03T21:08:47;2.10;99.90
11087;DHT22;5597;47.588;9.642;2023-03-03T21:11:17;2.00;99.90
11087;DHT22;5597;47.588;9.642;2023-03-03T21:13:48;1.90;99.90
11087;DHT22;5597;47.588;9.642;2023-03-03T21:19:12;1.80;99.90
11087;DHT22;5597;47.588;9.642;2023-03-03T21:21:42;1.80;99.90
11087;DHT22;5597;47.588;9.642;2023-03-03T21:24:12;1.70;99.90
11087;DHT22;5597;47.588;9.642;2023-03-03T21:26:59;1.60;99.90
11087;DHT22;5597;47.588;9.642;2023-03-03T21:29:33;1.50;99.90
11087;DHT22;5597;47.588;9.642;2023-03-03T21:32:04;1.50;99.90
11087;DHT22;5597;47.588;9.642;2023-03-03T21:34:38;1.50;99.90
11087;DHT22;5597;47.588;9.642;2023-03-03T21:37:10;1.50;99.90
11087;DHT22;5597;47.588;9.642;2023-03-03T21:39:39;1.50;99.90
11087;DHT22;5597;47.588;9.642;2023-03-03T21:42:07;1.40;99.90
11087;DHT22;5597;47.588;9.642;2023-03-03T21:44:39;1.50;99.90
11087;DHT22;5597;47.588;9.642;2023-03-03T21:47:08;1.40;99.90
11087;DHT22;5597;47.588;9.642;2023-03-03T21:49:34;1.30;99.90
11087;DHT22;5597;47.588;9.642;2023-03-03T21:52:00;1.30;99.90
11087;DHT22;5597;47.588;9.642;2023-03-03T21:54:26;1.30;99.90
11087;DHT22;5597;47.588;9.642;2023-03-03T21:56:52;1.20;99.90
11087;DHT22;5597;47.588;9.642;2023-03-03T21:59:18;1.20;99.90
11087;DHT22;5597;47.588;9.642;2023-03-03T22:01:44;1.20;99.90
11087;DHT22;5597;47.588;9.642;2023-03-03T22:04:10;1.20;99.90
11087;DHT22;5597;47.588;9.642;2023-03-03T22:06:35;1.10;99.90
11087;DHT22;5597;47.588;9.642;2023-03-03T22:09:05;1.10;99.90
11087;DHT22;5597;47.588;9.642;2023-03-03T22:11:32;1.10;99.90
11087;DHT22;5597;47.588;9.642;2023-03-03T22:13:57;1.10;99.90
11087;DHT22;5597;47.588;9.642;2023-03-03T22:16:23;1.00;99.90
11087;DHT22;5597;47.588;9.642;2023-03-03T22:18:49;1.00;99.90
11087;DHT22;5597;47.588;9.642;2023-03-03T22:21:14;1.00;99.90
11087;DHT22;5597;47.588;9.642;2023-03-03T22:23:40;1.00;99.90
11087;DHT22;5597;47.588;9.642;2023-03-03T22:26:06;1.00;99.90
11087;DHT22;5597;47.588;9.642;2023-03-03T22:28:31;0.90;99.90
11087;DHT22;5597;47.588;9.642;2023-03-03T22:30:57;0.90;99.90
11087;DHT22;5597;47.588;9.642;2023-03-03T22:33:22;0.80;99.90
11087;DHT22;5597;47.588;9.642;2023-03-03T22:35:48;0.70;99.90
11087;DHT22;5597;47.588;9.642;2023-03-03T22:38:16;0.70;99.90
11087;DHT22;5597;47.588;9.642;2023-03-03T22:40:43;0.70;99.90
11087;DHT22;5597;47.588;9.642;2023-03-03T22:43:09;0.60;99.90
11087;DHT22;5597;47.588;9.642;2023-03-03T22:45:39;0.60;99.90
11087;DHT22;5597;47.588;9.642;2023-03-03T22:48:05;0.60;99.90
11087;DHT22;5597;47.588;9.642;2023-03-03T22:50:31;0.60;99.90
11087;DHT22;5597;47.588;9.642;2023-03-03T22:52:56;0.60;99.90
11087;DHT22;5597;47.588;9.642;2023-03-03T22:55:22;0.50;99.90
11087;DHT22;5597;47.588;9.642;2023-03-03T22:57:47;0.50;99.90
11087;DHT22;5597;47.588;9.642;2023-03-03T23:00:14;0.40;99.90
11087;DHT22;5597;47.588;9.642;2023-03-03T23:02:40;0.30;99.90
11087;DHT22;5597;47.588;9.642;2023-03-03T23:05:06;0.30;99.90
11087;DHT22;5597;47.588;9.642;2023-03-03T23:07:34;0.20;99.90
11087;DHT22;5597;47.588;9.642;2023-03-03T23:10:00;0.20;99.90
11087;DHT22;5597;47.588;9.642;2023-03-03T23:12:26;0.20;99.90
11087;DHT22;5597;47.588;9.642;2023-03-03T23:14:52;0.20;99.90
11087;DHT22;5597;47.588;9.642;2023-03-03T23:17:18;0.20;99.90
11087;DHT22;5597;47.588;9.642;2023-03-03T23:19:44;0.10;99.90
11087;DHT22;5597;47.588;9.642;2023-03-03T23:22:13;0.10;99.90
11087;DHT22;5597;47.588;9.642;2023-03-03T23:24:40;0.00;99.90
11087;DHT22;5597;47.588;9.642;2023-03-03T23:27:07;0.00;99.90
11087;DHT22;5597;47.588;9.642;2023-03-03T23:29:33;0.00;99.90
11087;DHT22;5597;47.588;9.642;2023-03-03T23:31:58;-0.10;99.90
11087;DHT22;5597;47.588;9.642;2023-03-03T23:34:24;-0.10;99.90